Time;durP1;ratioP1;P1;durP2;ratioP2;P2;SDS_P1;SDS_P2;PMS_P1;PMS_P2;Temp;Humidity;BMP_temperature;BMP_pressure;BME280_temperature;BME280_humidity;BME280_pressure;Samples;Min_cycle;Max_cycle;Signal;HPM_P1;HPM_P2
2021/09/06 00:02:01;;;;;;;;;;;;;;;;;;5095492;28;20418;-73
2021/09/06 00:04:28;;;;;;;;;;;;;;;;;;5095377;28;19931;-73
2021/09/06 00:06:54;;;;;;;;;;;;;;;;;;5095282;28;19928;-73
2021/09/06 00:09:20;;;;;;;;;;;;;;;;;;5095401;28;20295;-73
2021/09/06 00:11:47;;;;;;;;;;;;;;;;;;5095345;28;19924;-73
2021/09/06 00:14:13;;;;;;;;;;;;;;;;;;5093950;28;19924;-73
2021/09/06 00:16:39;;;;;;;;;;;;;;;;;;5095172;28;20397;-73
2021/09/06 00:19:06;;;;;;;;;;;;;;;;;;5094970;28;19931;-73
2021/09/06 00:21:32;;;;;;;;;;;;;;;;;;5095566;28;19924;-73
2021/09/06 00:23:58;;;;;;;;;;;;;;;;;;5094879;28;19973;-73
2021/09/06 00:26:25;;;;;;;;;;;;;;;;;;5095037;28;19942;-73
2021/09/06 00:28:51;;;;;;;;;;;;;;;;;;5095044;28;20488;-73
2021/09/06 00:31:17;;;;;;;;;;;;;;;;;;5094661;28;19932;-73
2021/09/06 00:33:44;;;;;;;;;;;;;;;;;;5095163;28;19930;-73
2021/09/06 00:36:10;;;;;;;;;;;;;;;;;;5094607;28;19931;-73
2021/09/06 00:38:36;;;;;;;;;;;;;;;;;;5095154;28;19929;-73
2021/09/06 00:41:02;;;;;;;;;;;;;;;;;;5094424;28;20397;-73
2021/09/06 00:43:29;;;;;;;;;;;;;;;;;;5094662;28;20019;-73
2021/09/06 00:45:56;;;;;;;;;;;;;;;;;;5094704;28;19973;-73
2021/09/06 00:48:25;;;;;;;;;;;;;;;;;;5094667;28;20239;-73
2021/09/06 00:50:51;;;;;;;;;;;;;;;;;;5094343;28;19924;-73
2021/09/06 00:53:17;;;;;;;;;;;;;;;;;;5094435;28;20386;-73
2021/09/06 00:55:44;;;;;;;;;;;;;;;;;;5094680;28;19935;-73
2021/09/06 00:58:10;;;;;;;;;;;;;;;;;;5094589;28;19936;-73
2021/09/06 01:00:36;;;;;;;;;;;;;;;;;;5094467;28;20397;-73
2021/09/06 01:03:03;;;;;;;;;;;;;;;;;;5094338;28;19932;-73
2021/09/06 01:05:29;;;;;;;;;;;;;;;;;;5094750;28;20393;-73
2021/09/06 01:07:56;;;;;;;;;;;;;;;;;;5094146;28;19928;-73
2021/09/06 01:10:22;;;;;;;;;;;;;;;;;;5094244;28;19950;-73
2021/09/06 01:12:49;;;;;;;;;;;;;;;;;;5094250;28;19924;-73
2021/09/06 01:15:15;;;;;;;;;;;;;;;;;;5094246;28;19928;-73
2021/09/06 01:17:41;;;;;;;;;;;;;;;;;;5094024;28;20370;-73
2021/09/06 01:20:08;;;;;;;;;;;;;;;;;;5094078;28;19924;-73
2021/09/06 01:22:34;;;;;;;;;;;;;;;;;;5094219;28;19924;-73
2021/09/06 01:25:00;;;;;;;;;;;;;;;;;;5093234;28;19924;-73
2021/09/06 01:27:27;;;;;;;;;;;;;;;;;;5094422;28;19931;-74
2021/09/06 01:29:53;;;;;;;;;;;;;;;;;;5093734;28;20393;-73
2021/09/06 01:32:19;;;;;;;;;;;;;;;;;;5093411;28;19931;-73
2021/09/06 01:34:45;;;;;;;;;;;;;;;;;;5094054;28;19928;-73
2021/09/06 01:37:12;;;;;;;;;;;;;;;;;;5093310;28;19924;-73
2021/09/06 01:39:38;;;;;;;;;;;;;;;;;;5093852;28;19931;-73
2021/09/06 01:42:04;;;;;;;;;;;;;;;;;;5093647;28;19924;-73
2021/09/06 01:44:31;;;;;;;;;;;;;;;;;;5093492;28;19924;-73
2021/09/06 01:46:57;;;;;;;;;;;;;;;;;;5093787;28;19940;-73
2021/09/06 01:49:23;;;;;;;;;;;;;;;;;;5093447;28;20313;-73
2021/09/06 01:51:49;;;;;;;;;;;;;;;;;;5093228;28;19938;-73
2021/09/06 01:54:16;;;;;;;;;;;;;;;;;;5093376;28;19935;-73
2021/09/06 01:56:42;;;;;;;;;;;;;;;;;;5093372;28;20266;-73
2021/09/06 01:59:08;;;;;;;;;;;;;;;;;;5093017;28;19924;-73
2021/09/06 02:01:35;;;;;;;;;;;;;;;;;;5093498;28;19930;-73
2021/09/06 02:04:01;;;;;;;;;;;;;;;;;;5093162;28;19947;-73
2021/09/06 02:06:27;;;;;;;;;;;;;;;;;;5093202;28;19930;-73
2021/09/06 02:08:54;;;;;;;;;;;;;;;;;;5093287;28;19923;-73
2021/09/06 02:11:20;;;;;;;;;;;;;;;;;;5093351;28;19924;-74
2021/09/06 02:13:46;;;;;;;;;;;;;;;;;;5093544;28;20073;-73
2021/09/06 02:16:12;;;;;;;;;;;;;;;;;;5092814;28;20374;-73
2021/09/06 02:18:39;;;;;;;;;;;;;;;;;;5093327;28;19924;-73
2021/09/06 02:21:05;;;;;;;;;;;;;;;;;;5093004;28;20301;-73
2021/09/06 02:23:31;;;;;;;;;;;;;;;;;;5092909;28;19924;-73
2021/09/06 02:25:58;;;;;;;;;;;;;;;;;;5093105;28;19970;-73
2021/09/06 02:28:24;;;;;;;;;;;;;;;;;;5092441;28;20409;-73
2021/09/06 02:30:50;;;;;;;;;;;;;;;;;;5092847;28;19931;-73
2021/09/06 02:33:17;;;;;;;;;;;;;;;;;;5093003;28;19928;-73
2021/09/06 02:35:43;;;;;;;;;;;;;;;;;;5092204;28;20279;-73
2021/09/06 02:38:09;;;;;;;;;;;;;;;;;;5092203;28;19924;-73
2021/09/06 02:40:35;;;;;;;;;;;;;;;;;;5092945;28;19930;-73
2021/09/06 02:43:02;;;;;;;;;;;;;;;;;;5092711;28;19951;-73
2021/09/06 02:45:28;;;;;;;;;;;;;;;;;;5092586;28;19924;-73
2021/09/06 02:47:54;;;;;;;;;;;;;;;;;;5092939;28;19993;-73
2021/09/06 02:50:21;;;;;;;;;;;;;;;;;;5092118;28;19927;-74
2021/09/06 02:52:47;;;;;;;;;;;;;;;;;;5092833;28;19928;-74
2021/09/06 02:55:13;;;;;;;;;;;;;;;;;;5092249;28;20287;-74
2021/09/06 02:57:40;;;;;;;;;;;;;;;;;;5092512;28;19931;-73
2021/09/06 03:00:06;;;;;;;;;;;;;;;;;;5092428;28;19931;-74
2021/09/06 03:02:32;;;;;;;;;;;;;;;;;;5092726;28;20290;-71
2021/09/06 03:04:59;;;;;;;;;;;;;;;;;;5092388;28;19924;-73
2021/09/06 03:07:25;;;;;;;;;;;;;;;;;;5092127;28;20363;-73
2021/09/06 03:09:51;;;;;;;;;;;;;;;;;;5092375;28;19924;-73
2021/09/06 03:12:18;;;;;;;;;;;;;;;;;;5092222;28;19940;-72
2021/09/06 03:14:44;;;;;;;;;;;;;;;;;;5092287;28;20378;-73
2021/09/06 03:17:10;;;;;;;;;;;;;;;;;;5092158;28;19924;-73
2021/09/06 03:19:36;;;;;;;;;;;;;;;;;;5092559;28;19931;-73
2021/09/06 03:22:03;;;;;;;;;;;;;;;;;;5092209;28;20290;-73
2021/09/06 03:24:29;;;;;;;;;;;;;;;;;;5092159;28;19924;-72
2021/09/06 03:26:55;;;;;;;;;;;;;;;;;;5092179;28;19931;-73
2021/09/06 03:29:22;;;;;;;;;;;;;;;;;;5092182;28;19924;-72
2021/09/06 03:31:48;;;;;;;;;;;;;;;;;;5091969;28;20272;-72
2021/09/06 03:34:14;;;;;;;;;;;;;;;;;;5091986;28;19925;-73
2021/09/06 03:36:42;;;;;;;;;;;;;;;;;;5091372;28;20343;-73
2021/09/06 03:39:09;;;;;;;;;;;;;;;;;;5092358;28;19931;-75
2021/09/06 03:41:35;;;;;;;;;;;;;;;;;;5092243;28;19924;-75
2021/09/06 03:44:01;;;;;;;;;;;;;;;;;;5092263;28;20294;-75
2021/09/06 03:46:28;;;;;;;;;;;;;;;;;;5092033;28;19939;-75
2021/09/06 03:48:54;;;;;;;;;;;;;;;;;;5095198;28;20015;-75
2021/09/06 03:51:21;;;;;;;;;;;;;;;;;;5095766;28;19928;-75
2021/09/06 03:53:47;;;;;;;;;;;;;;;;;;5095724;28;20278;-74
2021/09/06 03:56:13;;;;;;;;;;;;;;;;;;5095449;28;19925;-74
2021/09/06 03:58:40;;;;;;;;;;;;;;;;;;5095950;28;19924;-76
2021/09/06 04:01:06;;;;;;;;;;;;;;;;;;5095651;28;19946;-75
2021/09/06 04:03:32;;;;;;;;;;;;;;;;;;5095448;28;20358;-75
2021/09/06 04:05:59;;;;;;;;;;;;;;;;;;5095433;28;19935;-75
2021/09/06 04:08:25;;;;;;;;;;;;;;;;;;5095280;28;20019;-75
2021/09/06 04:10:52;;;;;;;;;;;;;;;;;;5095676;28;19928;-75
2021/09/06 04:13:18;;;;;;;;;;;;;;;;;;5095008;28;20332;-75
2021/09/06 04:15:45;;;;;;;;;;;;;;;;;;5095226;28;19924;-75
2021/09/06 04:18:12;;;;;;;;;;;;;;;;;;5095251;28;19931;-75
2021/09/06 04:20:38;;;;;;;;;;;;;;;;;;5095242;28;20351;-75
2021/09/06 04:23:04;;;;;;;;;;;;;;;;;;5094651;28;19924;-76
2021/09/06 04:25:31;;;;;;;;;;;;;;;;;;5095513;28;19924;-75
2021/09/06 04:27:57;;;;;;;;;;;;;;;;;;5094965;28;19924;-74
2021/09/06 04:30:23;;;;;;;;;;;;;;;;;;5094894;28;19924;-76
2021/09/06 04:32:50;;;;;;;;;;;;;;;;;;5095154;28;19930;-76
2021/09/06 04:35:16;;;;;;;;;;;;;;;;;;5094731;28;19924;-75
2021/09/06 04:37:42;;;;;;;;;;;;;;;;;;5094645;28;19930;-75
2021/09/06 04:40:08;;;;;;;;;;;;;;;;;;5094568;28;19977;-75
2021/09/06 04:42:35;;;;;;;;;;;;;;;;;;5095066;28;19931;-76
2021/09/06 04:45:01;;;;;;;;;;;;;;;;;;5094485;28;20282;-75
2021/09/06 04:47:27;;;;;;;;;;;;;;;;;;5094623;28;19931;-76
2021/09/06 04:49:54;;;;;;;;;;;;;;;;;;5094943;28;19924;-74
2021/09/06 04:52:20;;;;;;;;;;;;;;;;;;5093930;28;20653;-73
2021/09/06 04:54:46;;;;;;;;;;;;;;;;;;5094599;28;19931;-74
2021/09/06 04:57:13;;;;;;;;;;;;;;;;;;5094463;28;19940;-74
2021/09/06 04:59:39;;;;;;;;;;;;;;;;;;5093541;28;20409;-74
2021/09/06 05:02:05;;;;;;;;;;;;;;;;;;5094133;28;19924;-75
2021/09/06 05:04:31;;;;;;;;;;;;;;;;;;5094612;28;19924;-76
2021/09/06 05:06:58;;;;;;;;;;;;;;;;;;5094515;28;20390;-75
2021/09/06 05:09:24;;;;;;;;;;;;;;;;;;5093989;28;19924;-76
2021/09/06 05:11:51;;;;;;;;;;;;;;;;;;5094176;28;20015;-75
2021/09/06 05:14:17;;;;;;;;;;;;;;;;;;5093885;28;19928;-75
2021/09/06 05:16:43;;;;;;;;;;;;;;;;;;5094195;28;19930;-75
2021/09/06 05:19:10;;;;;;;;;;;;;;;;;;5094168;28;19924;-75
2021/09/06 05:21:36;;;;;;;;;;;;;;;;;;5094472;28;19924;-75
2021/09/06 05:24:02;;;;;;;;;;;;;;;;;;5093609;28;19924;-76
2021/09/06 05:26:29;;;;;;;;;;;;;;;;;;5093937;28;19928;-76
2021/09/06 05:28:55;;;;;;;;;;;;;;;;;;5094188;28;19924;-76
2021/09/06 05:31:21;;;;;;;;;;;;;;;;;;5093562;28;20362;-76
2021/09/06 05:33:48;;;;;;;;;;;;;;;;;;5093830;28;19924;-75
2021/09/06 05:36:15;;;;;;;;;;;;;;;;;;5093819;28;19924;-75
2021/09/06 05:38:41;;;;;;;;;;;;;;;;;;5093901;28;19928;-75
2021/09/06 05:41:08;;;;;;;;;;;;;;;;;;5093361;28;20388;-75
2021/09/06 05:43:34;;;;;;;;;;;;;;;;;;5093629;28;19924;-75
2021/09/06 05:46:00;;;;;;;;;;;;;;;;;;5093670;28;19924;-76
2021/09/06 05:48:27;;;;;;;;;;;;;;;;;;5093900;28;19924;-76
2021/09/06 05:50:53;;;;;;;;;;;;;;;;;;5093707;28;19924;-76
2021/09/06 05:53:19;;;;;;;;;;;;;;;;;;5092975;28;19928;-75
2021/09/06 05:55:46;;;;;;;;;;;;;;;;;;5093748;28;19924;-76
2021/09/06 05:58:12;;;;;;;;;;;;;;;;;;5093060;28;20385;-76
2021/09/06 06:00:38;;;;;;;;;;;;;;;;;;5093507;28;19924;-76
2021/09/06 06:03:04;;;;;;;;;;;;;;;;;;5093417;28;19924;-76
2021/09/06 06:05:31;;;;;;;;;;;;;;;;;;5093160;28;19924;-76
2021/09/06 06:07:57;;;;;;;;;;;;;;;;;;5093483;28;19924;-76
2021/09/06 06:10:24;;;;;;;;;;;;;;;;;;5093078;28;19946;-76
2021/09/06 06:12:50;;;;;;;;;;;;;;;;;;5092917;28;20410;-75
2021/09/06 06:15:16;;;;;;;;;;;;;;;;;;5092786;28;20023;-75
2021/09/06 06:17:43;;;;;;;;;;;;;;;;;;5093306;28;19924;-75
2021/09/06 06:20:09;;;;;;;;;;;;;;;;;;5092926;28;19950;-76
2021/09/06 06:22:36;;;;;;;;;;;;;;;;;;5092733;28;19998;-75
2021/09/06 06:25:02;;;;;;;;;;;;;;;;;;5092961;28;19924;-76
2021/09/06 06:27:28;;;;;;;;;;;;;;;;;;5092801;28;19923;-76
2021/09/06 06:29:55;;;;;;;;;;;;;;;;;;5092839;28;19930;-75
2021/09/06 06:32:21;;;;;;;;;;;;;;;;;;5092744;28;19928;-75
2021/09/06 06:34:47;;;;;;;;;;;;;;;;;;5092996;28;19924;-76
2021/09/06 06:37:14;;;;;;;;;;;;;;;;;;5092506;28;19931;-76
2021/09/06 06:39:40;;;;;;;;;;;;;;;;;;5092949;28;19935;-75
2021/09/06 06:42:06;;;;;;;;;;;;;;;;;;5092299;28;19924;-75
2021/09/06 06:44:33;;;;;;;;;;;;;;;;;;5092625;28;19932;-76
2021/09/06 06:46:59;;;;;;;;;;;;;;;;;;5092834;28;19924;-75
2021/09/06 06:49:26;;;;;;;;;;;;;;;;;;5092360;28;19953;-75
2021/09/06 06:51:52;;;;;;;;;;;;;;;;;;5092375;28;19935;-76
2021/09/06 06:54:18;;;;;;;;;;;;;;;;;;5092145;28;20256;-75
2021/09/06 06:56:45;;;;;;;;;;;;;;;;;;5094532;28;19973;-75
2021/09/06 06:59:11;;;;;;;;;;;;;;;;;;5092132;28;20275;-75
2021/09/06 07:01:38;;;;;;;;;;;;;;;;;;5092419;28;19973;-75
2021/09/06 07:04:05;;;;;;;;;;;;;;;;;;5092407;28;19985;-75
2021/09/06 07:06:31;;;;;;;;;;;;;;;;;;5092693;28;19924;-76
2021/09/06 07:08:57;;;;;;;;;;;;;;;;;;5092356;28;19924;-76
2021/09/06 07:11:25;;;;;;;;;;;;;;;;;;5091960;28;19924;-76
2021/09/06 07:13:51;;;;;;;;;;;;;;;;;;5092326;28;19924;-76
2021/09/06 07:16:17;;;;;;;;;;;;;;;;;;5092320;28;19932;-76
2021/09/06 07:18:44;;;;;;;;;;;;;;;;;;5092787;28;19974;-76
2021/09/06 07:21:10;;;;;;;;;;;;;;;;;;5091861;28;19958;-77
2021/09/06 07:23:37;;;;;;;;;;;;;;;;;;5094896;28;19970;-76
2021/09/06 07:26:03;;;;;;;;;;;;;;;;;;5095953;28;20337;-76
2021/09/06 07:28:29;;;;;;;;;;;;;;;;;;5096254;28;19924;-75
2021/09/06 07:30:57;;;;;;;;;;;;;;;;;;5096213;28;20436;-76
2021/09/06 07:33:23;;;;;;;;;;;;;;;;;;5095948;28;19938;-76
2021/09/06 07:35:50;;;;;;;;;;;;;;;;;;5096264;28;20440;-76
2021/09/06 07:38:17;;;;;;;;;;;;;;;;;;5096037;28;19924;-76
2021/09/06 07:40:43;;;;;;;;;;;;;;;;;;5095792;28;19924;-76
2021/09/06 07:43:10;;;;;;;;;;;;;;;;;;5095882;28;20428;-75
2021/09/06 07:45:36;;;;;;;;;;;;;;;;;;5095902;28;20006;-76
2021/09/06 07:48:02;;;;;;;;;;;;;;;;;;5095949;28;19928;-76
2021/09/06 07:50:29;;;;;;;;;;;;;;;;;;5095975;28;19985;-76
2021/09/06 07:52:55;;;;;;;;;;;;;;;;;;5095612;28;19973;-76
2021/09/06 07:55:22;;;;;;;;;;;;;;;;;;5095627;28;19928;-76
2021/09/06 07:57:48;;;;;;;;;;;;;;;;;;5095807;28;19924;-76
2021/09/06 08:00:14;;;;;;;;;;;;;;;;;;5095688;28;19974;-75
2021/09/06 08:02:47;;;;;;;;;;;;;;;;;;5095560;28;20431;-76
2021/09/06 08:05:14;;;;;;;;;;;;;;;;;;5095564;28;19924;-76
2021/09/06 08:07:40;;;;;;;;;;;;;;;;;;5095813;28;19928;-76
2021/09/06 08:10:07;;;;;;;;;;;;;;;;;;5096290;28;19928;-74
2021/09/06 08:12:33;;;;;;;;;;;;;;;;;;5095669;28;20403;-75
2021/09/06 08:14:59;;;;;;;;;;;;;;;;;;5095353;28;19928;-76
2021/09/06 08:17:26;;;;;;;;;;;;;;;;;;5095233;28;19973;-75
2021/09/06 08:19:52;;;;;;;;;;;;;;;;;;5095384;28;20301;-76
2021/09/06 08:22:19;;;;;;;;;;;;;;;;;;5095334;28;19924;-75
2021/09/06 08:24:45;;;;;;;;;;;;;;;;;;5095051;28;19924;-76
2021/09/06 08:27:12;;;;;;;;;;;;;;;;;;5094935;28;19924;-75
2021/09/06 08:29:38;;;;;;;;;;;;;;;;;;5095299;28;20159;-75
2021/09/06 08:32:05;;;;;;;;;;;;;;;;;;5094660;28;19924;-76
2021/09/06 08:34:31;;;;;;;;;;;;;;;;;;5093630;28;19924;-75
2021/09/06 08:36:58;;;;;;;;;;;;;;;;;;5095114;28;20444;-75
2021/09/06 08:39:24;;;;;;;;;;;;;;;;;;5094645;28;19924;-75
2021/09/06 08:41:51;;;;;;;;;;;;;;;;;;5095093;28;19928;-75
2021/09/06 08:44:17;;;;;;;;;;;;;;;;;;5094553;28;19929;-75
2021/09/06 08:46:43;;;;;;;;;;;;;;;;;;5095042;28;19924;-75
2021/09/06 08:49:10;;;;;;;;;;;;;;;;;;5094793;28;20374;-75
2021/09/06 08:51:36;;;;;;;;;;;;;;;;;;5094627;28;20060;-75
2021/09/06 08:54:02;;;;;;;;;;;;;;;;;;5094605;28;20312;-75
2021/09/06 08:56:29;;;;;;;;;;;;;;;;;;5094568;28;19977;-75
2021/09/06 08:58:55;;;;;;;;;;;;;;;;;;5094764;28;19931;-75
2021/09/06 09:01:22;;;;;;;;;;;;;;;;;;5094182;28;19977;-75
2021/09/06 09:03:48;;;;;;;;;;;;;;;;;;5094711;28;19924;-75
2021/09/06 09:06:14;;;;;;;;;;;;;;;;;;5094160;28;19974;-75
2021/09/06 09:08:41;;;;;;;;;;;;;;;;;;5094613;28;19977;-75
2021/09/06 09:11:07;;;;;;;;;;;;;;;;;;5094352;28;19924;-75
2021/09/06 09:13:34;;;;;;;;;;;;;;;;;;5094140;28;19924;-75
2021/09/06 09:16:00;;;;;;;;;;;;;;;;;;5094488;28;20004;-76
2021/09/06 09:18:26;;;;;;;;;;;;;;;;;;5094154;28;19924;-76
2021/09/06 09:20:53;;;;;;;;;;;;;;;;;;5094433;28;19928;-76
2021/09/06 09:23:19;;;;;;;;;;;;;;;;;;5093629;28;20389;-76
2021/09/06 09:25:46;;;;;;;;;;;;;;;;;;5093793;28;19931;-76
2021/09/06 09:28:12;;;;;;;;;;;;;;;;;;5094095;28;19931;-76
2021/09/06 09:30:41;;;;;;;;;;;;;;;;;;5094228;28;19924;-76
2021/09/06 09:33:07;;;;;;;;;;;;;;;;;;5093575;28;19969;-76
2021/09/06 09:35:33;;;;;;;;;;;;;;;;;;5094175;28;19928;-76
2021/09/06 09:38:00;;;;;;;;;;;;;;;;;;5094055;28;20320;-76
2021/09/06 09:40:26;;;;;;;;;;;;;;;;;;5093654;28;19949;-75
2021/09/06 09:42:53;;;;;;;;;;;;;;;;;;5093994;28;20331;-74
2021/09/06 09:45:19;;;;;;;;;;;;;;;;;;5093098;28;19970;-74
2021/09/06 09:47:45;;;;;;;;;;;;;;;;;;5093773;28;19924;-75
2021/09/06 09:50:12;;;;;;;;;;;;;;;;;;5093201;28;19981;-75
2021/09/06 09:52:38;;;;;;;;;;;;;;;;;;5093903;28;19924;-76
2021/09/06 09:55:05;;;;;;;;;;;;;;;;;;5093021;28;19977;-76
2021/09/06 09:57:31;;;;;;;;;;;;;;;;;;5093697;28;19932;-75
2021/09/06 09:59:58;;;;;;;;;;;;;;;;;;5093218;28;19924;-76
2021/09/06 10:02:24;;;;;;;;;;;;;;;;;;5093039;28;19924;-75
2021/09/06 10:04:51;;;;;;;;;;;;;;;;;;5093238;28;19971;-76
2021/09/06 10:07:17;;;;;;;;;;;;;;;;;;5093362;28;19928;-76
2021/09/06 10:09:44;;;;;;;;;;;;;;;;;;5093303;28;19924;-76
2021/09/06 10:12:10;;;;;;;;;;;;;;;;;;5093247;28;19924;-75
2021/09/06 10:14:36;;;;;;;;;;;;;;;;;;5093304;28;19937;-75
2021/09/06 10:17:03;;;;;;;;;;;;;;;;;;5093117;28;19924;-75
2021/09/06 10:19:29;;;;;;;;;;;;;;;;;;5092927;28;19930;-74
2021/09/06 10:21:56;;;;;;;;;;;;;;;;;;5093025;28;19927;-74
2021/09/06 10:24:22;;;;;;;;;;;;;;;;;;5092721;28;19993;-75
2021/09/06 10:26:48;;;;;;;;;;;;;;;;;;5092858;28;19974;-75
2021/09/06 10:29:15;;;;;;;;;;;;;;;;;;5093028;28;19924;-75
2021/09/06 10:31:41;;;;;;;;;;;;;;;;;;5093130;28;20402;-75
2021/09/06 10:34:08;;;;;;;;;;;;;;;;;;5092416;28;19977;-75
2021/09/06 10:36:35;;;;;;;;;;;;;;;;;;5093226;28;19982;-76
2021/09/06 10:39:01;;;;;;;;;;;;;;;;;;5092392;28;19928;-76
2021/09/06 10:41:28;;;;;;;;;;;;;;;;;;5093031;28;19925;-76
2021/09/06 10:43:54;;;;;;;;;;;;;;;;;;5092873;28;19924;-74
2021/09/06 10:46:20;;;;;;;;;;;;;;;;;;5092346;28;19928;-74
2021/09/06 10:48:47;;;;;;;;;;;;;;;;;;5092935;28;20378;-75
2021/09/06 10:51:13;;;;;;;;;;;;;;;;;;5092232;28;19973;-75
2021/09/06 10:53:40;;;;;;;;;;;;;;;;;;5092388;28;19924;-75
2021/09/06 10:56:06;;;;;;;;;;;;;;;;;;5092291;28;20289;-75
2021/09/06 10:58:32;;;;;;;;;;;;;;;;;;5091719;28;19924;-75
2021/09/06 11:00:59;;;;;;;;;;;;;;;;;;5092790;28;20374;-75
2021/09/06 11:03:27;;;;;;;;;;;;;;;;;;5092250;28;19972;-75
2021/09/06 11:05:54;;;;;;;;;;;;;;;;;;5092649;28;20342;-74
2021/09/06 11:08:20;;;;;;;;;;;;;;;;;;5092174;28;19925;-75
2021/09/06 11:10:47;;;;;;;;;;;;;;;;;;5092782;28;19924;-74
2021/09/06 11:13:13;;;;;;;;;;;;;;;;;;5092387;28;20401;-74
2021/09/06 11:15:39;;;;;;;;;;;;;;;;;;5092347;28;19928;-75
2021/09/06 11:18:06;;;;;;;;;;;;;;;;;;5092431;28;19928;-75
2021/09/06 11:20:32;;;;;;;;;;;;;;;;;;5092336;28;19978;-75
2021/09/06 11:22:59;;;;;;;;;;;;;;;;;;5092371;28;20360;-75
2021/09/06 11:25:25;;;;;;;;;;;;;;;;;;5092372;28;19969;-75
2021/09/06 11:27:51;;;;;;;;;;;;;;;;;;5092053;28;20035;-75
2021/09/06 11:30:18;;;;;;;;;;;;;;;;;;5092483;28;19932;-75
2021/09/06 11:32:44;;;;;;;;;;;;;;;;;;5092537;28;19928;-75
2021/09/06 11:35:11;;;;;;;;;;;;;;;;;;5092381;28;19925;-75
2021/09/06 11:37:37;;;;;;;;;;;;;;;;;;5092447;28;19924;-75
2021/09/06 11:40:03;;;;;;;;;;;;;;;;;;5092027;28;20453;-75
2021/09/06 11:42:30;;;;;;;;;;;;;;;;;;5092499;28;19924;-75
2021/09/06 11:44:57;;;;;;;;;;;;;;;;;;5092109;28;20364;-75
2021/09/06 11:47:23;;;;;;;;;;;;;;;;;;5091829;28;19924;-75
2021/09/06 11:49:50;;;;;;;;;;;;;;;;;;5092266;28;19924;-75
2021/09/06 11:52:18;;;;;;;;;;;;;;;;;;5092083;28;20547;-75
2021/09/06 11:54:44;;;;;;;;;;;;;;;;;;5092305;28;19924;-75
2021/09/06 11:57:12;;;;;;;;;;;;;;;;;;5092094;28;19970;-75
2021/09/06 11:59:39;;;;;;;;;;;;;;;;;;5092085;28;19924;-75
2021/09/06 12:02:06;;;;;;;;;;;;;;;;;;5091678;28;20094;-75
2021/09/06 12:04:32;;;;;;;;;;;;;;;;;;5092276;28;19932;-75
2021/09/06 12:06:58;;;;;;;;;;;;;;;;;;5091993;28;19970;-74
2021/09/06 12:09:25;;;;;;;;;;;;;;;;;;5094303;28;19974;-74
2021/09/06 12:11:55;;;;;;;;;;;;;;;;;;5095628;28;19978;-75
2021/09/06 12:14:21;;;;;;;;;;;;;;;;;;5095063;28;19935;-75
2021/09/06 12:16:48;;;;;;;;;;;;;;;;;;5095700;28;19954;-75
2021/09/06 12:19:14;;;;;;;;;;;;;;;;;;5095435;28;19924;-75
2021/09/06 12:21:40;;;;;;;;;;;;;;;;;;5095601;28;19931;-74
2021/09/06 12:24:08;;;;;;;;;;;;;;;;;;5094790;28;19928;-75
2021/09/06 12:26:35;;;;;;;;;;;;;;;;;;5095103;28;20444;-74
2021/09/06 12:29:01;;;;;;;;;;;;;;;;;;5094994;28;19931;-75
2021/09/06 12:31:27;;;;;;;;;;;;;;;;;;5095438;28;19924;-74
2021/09/06 12:33:54;;;;;;;;;;;;;;;;;;5095129;28;19931;-75
2021/09/06 12:36:20;;;;;;;;;;;;;;;;;;5094780;28;19924;-74
2021/09/06 12:38:47;;;;;;;;;;;;;;;;;;5094780;28;20469;-75
2021/09/06 12:41:13;;;;;;;;;;;;;;;;;;5094692;28;19924;-75
2021/09/06 12:43:41;;;;;;;;;;;;;;;;;;5095022;28;19924;-75
2021/09/06 12:46:08;;;;;;;;;;;;;;;;;;5094830;28;20382;-75
2021/09/06 12:48:34;;;;;;;;;;;;;;;;;;5094798;28;19924;-76
2021/09/06 12:51:00;;;;;;;;;;;;;;;;;;5094666;28;20337;-75
2021/09/06 12:53:27;;;;;;;;;;;;;;;;;;5094722;28;19965;-75
2021/09/06 12:55:54;;;;;;;;;;;;;;;;;;5094672;28;20370;-75
2021/09/06 12:58:20;;;;;;;;;;;;;;;;;;5094640;28;19978;-75
2021/09/06 13:00:46;;;;;;;;;;;;;;;;;;5094563;28;19973;-75
2021/09/06 13:03:13;;;;;;;;;;;;;;;;;;5094167;28;19928;-75
2021/09/06 13:05:39;;;;;;;;;;;;;;;;;;5094844;28;19924;-75
2021/09/06 13:08:05;;;;;;;;;;;;;;;;;;5094431;28;19969;-75
2021/09/06 13:10:32;;;;;;;;;;;;;;;;;;5094774;28;20317;-75
2021/09/06 13:12:58;;;;;;;;;;;;;;;;;;5094409;28;19924;-75
2021/09/06 13:15:25;;;;;;;;;;;;;;;;;;5093928;28;19928;-75
2021/09/06 13:17:51;;;;;;;;;;;;;;;;;;5094241;28;20312;-75
2021/09/06 13:20:17;;;;;;;;;;;;;;;;;;5093371;28;19924;-75
2021/09/06 13:22:44;;;;;;;;;;;;;;;;;;5094363;28;20696;-75
2021/09/06 13:25:10;;;;;;;;;;;;;;;;;;5094045;28;19981;-75
2021/09/06 13:27:37;;;;;;;;;;;;;;;;;;5093935;28;19925;-75
2021/09/06 13:30:03;;;;;;;;;;;;;;;;;;5094019;28;20343;-75
2021/09/06 13:32:31;;;;;;;;;;;;;;;;;;5093870;28;19924;-75
2021/09/06 13:34:57;;;;;;;;;;;;;;;;;;5094037;28;19960;-75
2021/09/06 13:37:24;;;;;;;;;;;;;;;;;;5093694;28;19924;-75
2021/09/06 13:39:50;;;;;;;;;;;;;;;;;;5094030;28;19977;-75
2021/09/06 13:42:17;;;;;;;;;;;;;;;;;;5093583;28;20370;-75
2021/09/06 13:44:43;;;;;;;;;;;;;;;;;;5093989;28;19932;-75
2021/09/06 13:47:09;;;;;;;;;;;;;;;;;;5093355;28;20419;-75
2021/09/06 13:49:36;;;;;;;;;;;;;;;;;;5093785;28;19924;-74
2021/09/06 13:52:02;;;;;;;;;;;;;;;;;;5093533;28;20449;-73
2021/09/06 13:54:29;;;;;;;;;;;;;;;;;;5101529;28;19928;-72
2021/09/06 13:56:55;;;;;;;;;;;;;;;;;;5111217;28;20279;-72
2021/09/06 13:59:21;;;;;;;;;;;;;;;;;;5093250;28;19977;-73
2021/09/06 14:01:48;;;;;;;;;;;;;;;;;;5101575;28;20365;-73
2021/09/06 14:04:14;;;;;;;;;;;;;;;;;;5113431;28;20366;-74
2021/09/06 14:06:41;;;;;;;;;;;;;;;;;;5113863;28;19924;-74
2021/09/06 14:09:07;;;;;;;;;;;;;;;;;;5113246;28;20381;-74
2021/09/06 14:11:33;;;;;;;;;;;;;;;;;;5095515;28;19928;-74
2021/09/06 14:14:00;;;;;;;;;;;;;;;;;;5093469;28;19927;-76
2021/09/06 14:16:26;;;;;;;;;;;;;;;;;;5093319;28;20259;-77
2021/09/06 14:18:52;;;;;;;;;;;;;;;;;;5093098;28;19924;-77
2021/09/06 14:21:19;;;;;;;;;;;;;;;;;;5093233;28;20423;-77
2021/09/06 14:23:46;;;;;;;;;;;;;;;;;;5092694;28;19924;-76
2021/09/06 14:26:12;;;;;;;;;;;;;;;;;;5093068;28;20010;-75
2021/09/06 14:28:39;;;;;;;;;;;;;;;;;;5111415;28;19999;-74
2021/09/06 14:31:05;;;;;;;;;;;;;;;;;;5113243;28;19927;-75
2021/09/06 14:33:31;;;;;;;;;;;;;;;;;;5113097;28;19973;-76
2021/09/06 14:35:59;;;;;;;;;;;;;;;;;;5113301;28;19924;-75
2021/09/06 14:38:25;;;;;;;;;;;;;;;;;;5113124;28;19931;-75
2021/09/06 14:40:52;;;;;;;;;;;;;;;;;;5113208;28;19923;-75
2021/09/06 14:43:18;;;;;;;;;;;;;;;;;;5112875;28;19927;-76
2021/09/06 14:45:44;;;;;;;;;;;;;;;;;;5113020;28;20451;-75
2021/09/06 14:48:11;;;;;;;;;;;;;;;;;;5113005;28;19928;-76
2021/09/06 14:50:37;;;;;;;;;;;;;;;;;;5112911;28;20340;-74
2021/09/06 14:53:03;;;;;;;;;;;;;;;;;;5112710;28;19928;-74
2021/09/06 14:55:31;;;;;;;;;;;;;;;;;;5112845;28;20439;-74
2021/09/06 14:57:57;;;;;;;;;;;;;;;;;;5112742;28;19932;-75
2021/09/06 15:00:23;;;;;;;;;;;;;;;;;;5112560;28;19932;-74
2021/09/06 15:02:50;;;;;;;;;;;;;;;;;;5093881;28;19924;-74
2021/09/06 15:05:16;;;;;;;;;;;;;;;;;;5092069;28;20465;-73
2021/09/06 15:07:43;;;;;;;;;;;;;;;;;;5092661;28;19985;-72
2021/09/06 15:10:09;;;;;;;;;;;;;;;;;;5092485;28;19927;-74
2021/09/06 15:12:35;;;;;;;;;;;;;;;;;;5092615;28;19969;-74
2021/09/06 15:15:02;;;;;;;;;;;;;;;;;;5092318;28;19928;-73
2021/09/06 15:17:28;;;;;;;;;;;;;;;;;;5092651;28;19924;-73
2021/09/06 15:19:55;;;;;;;;;;;;;;;;;;5092588;28;19928;-72
2021/09/06 15:22:21;;;;;;;;;;;;;;;;;;5092215;28;20435;-72
2021/09/06 15:24:47;;;;;;;;;;;;;;;;;;5092226;28;20305;-73
2021/09/06 15:27:14;;;;;;;;;;;;;;;;;;5092250;28;19990;-72
2021/09/06 15:29:40;;;;;;;;;;;;;;;;;;5092544;28;19989;-72
2021/09/06 15:32:07;;;;;;;;;;;;;;;;;;5091990;28;19927;-71
2021/09/06 15:34:33;;;;;;;;;;;;;;;;;;5092425;28;20336;-71
2021/09/06 15:36:59;;;;;;;;;;;;;;;;;;5092071;28;19928;-71
2021/09/06 15:39:27;;;;;;;;;;;;;;;;;;5092141;28;20072;-73
2021/09/06 15:41:53;;;;;;;;;;;;;;;;;;5092074;28;19924;-72
2021/09/06 15:44:20;;;;;;;;;;;;;;;;;;5094025;28;20325;-72
2021/09/06 15:46:46;;;;;;;;;;;;;;;;;;5096278;28;20022;-72
2021/09/06 15:49:12;;;;;;;;;;;;;;;;;;5095933;28;19924;-72
2021/09/06 15:51:39;;;;;;;;;;;;;;;;;;5095711;28;19924;-72
2021/09/06 15:54:05;;;;;;;;;;;;;;;;;;5096020;28;20435;-71
2021/09/06 15:56:31;;;;;;;;;;;;;;;;;;5095554;28;19924;-71
2021/09/06 15:58:58;;;;;;;;;;;;;;;;;;5095694;28;20451;-71
2021/09/06 16:01:24;;;;;;;;;;;;;;;;;;5102469;28;19957;-71
2021/09/06 16:03:51;;;;;;;;;;;;;;;;;;5115905;28;19923;-72
2021/09/06 16:06:17;;;;;;;;;;;;;;;;;;5115559;28;19930;-72
2021/09/06 16:08:44;;;;;;;;;;;;;;;;;;5116199;28;19928;-73
2021/09/06 16:11:10;;;;;;;;;;;;;;;;;;5115638;28;19924;-72
2021/09/06 16:13:36;;;;;;;;;;;;;;;;;;5115725;28;19927;-72
2021/09/06 16:16:03;;;;;;;;;;;;;;;;;;5115346;28;20369;-73
2021/09/06 16:18:29;;;;;;;;;;;;;;;;;;5115591;28;19924;-73
2021/09/06 16:20:56;;;;;;;;;;;;;;;;;;5115676;28;20374;-73
2021/09/06 16:23:22;;;;;;;;;;;;;;;;;;5115291;28;19924;-73
2021/09/06 16:25:49;;;;;;;;;;;;;;;;;;5115594;28;19973;-73
2021/09/06 16:28:15;;;;;;;;;;;;;;;;;;5115294;28;19976;-73
2021/09/06 16:30:41;;;;;;;;;;;;;;;;;;5115681;28;19973;-73
2021/09/06 16:33:08;;;;;;;;;;;;;;;;;;5115527;28;19927;-73
2021/09/06 16:35:34;;;;;;;;;;;;;;;;;;5115282;28;19924;-73
2021/09/06 16:38:01;;;;;;;;;;;;;;;;;;5115596;28;19930;-73
2021/09/06 16:40:27;;;;;;;;;;;;;;;;;;5115551;28;19924;-73